Time;durP1;ratioP1;P1;durP2;ratioP2;P2;SDS_P1;SDS_P2;PMS_P1;PMS_P2;Temp;Humidity;BMP_temperature;BMP_pressure;BME280_temperature;BME280_humidity;BME280_pressure;Samples;Min_cycle;Max_cycle;Signal;HPM_P1;HPM_P2
2023/08/30 00:02:05;;;;;;;0.00;0.00;;;;;;;16.12;100.00;99428.78;5054077;28;20048;-85
2023/08/30 00:04:30;;;;;;;0.00;0.00;;;;;;;15.99;100.00;99414.91;5054575;28;20463;-85
2023/08/30 00:06:55;;;;;;;0.00;0.00;;;;;;;16.09;100.00;99421.31;5049166;28;20436;-85
2023/08/30 00:09:21;;;;;;;0.00;0.00;;;;;;;16.21;100.00;99421.50;5047314;28;20509;-85
2023/08/30 00:11:46;;;;;;;0.03;0.00;;;;;;;16.30;100.00;99416.84;5048790;28;20040;-85
2023/08/30 00:14:12;;;;;;;0.00;0.00;;;;;;;16.25;100.00;99423.53;5049852;28;20044;-85
2023/08/30 00:16:40;;;;;;;0.00;0.00;;;;;;;16.31;100.00;99427.16;5064285;28;20059;-85
2023/08/30 00:19:06;;;;;;;0.00;0.00;;;;;;;16.19;100.00;99429.59;5053570;28;20032;-85
2023/08/30 00:21:31;;;;;;;0.00;0.00;;;;;;;16.15;100.00;99414.44;5055582;28;20039;-85
2023/08/30 00:23:57;;;;;;;0.00;0.00;;;;;;;16.13;100.00;99419.91;5053365;28;20027;-85
2023/08/30 00:26:22;;;;;;;0.00;0.00;;;;;;;16.15;100.00;99417.88;5057552;28;20638;-85
2023/08/30 00:28:48;;;;;;;0.00;0.00;;;;;;;16.16;100.00;99419.50;5066658;28;20029;-85
2023/08/30 00:31:14;;;;;;;0.00;0.00;;;;;;;16.12;100.00;99415.66;5060005;28;20032;-85
2023/08/30 00:33:39;;;;;;;0.00;0.00;;;;;;;16.03;100.00;99419.53;5069556;28;20025;-85
2023/08/30 00:36:05;;;;;;;0.00;0.00;;;;;;;15.95;100.00;99421.56;5055597;28;20389;-85
2023/08/30 00:38:33;;;;;;;0.00;0.00;;;;;;;16.05;100.00;99417.53;5072312;28;20094;-85
2023/08/30 00:40:59;;;;;;;0.00;0.00;;;;;;;16.08;100.00;99418.91;5054739;28;20033;-85
2023/08/30 00:43:24;;;;;;;0.00;0.00;;;;;;;16.02;100.00;99432.88;5069132;28;20101;-85
2023/08/30 00:45:50;;;;;;;0.00;0.00;;;;;;;16.00;100.00;99419.94;5054929;28;20086;-85
2023/08/30 00:48:19;;;;;;;0.00;0.00;;;;;;;15.98;100.00;99432.47;5056212;28;20114;-85
2023/08/30 00:50:45;;;;;;;0.00;0.00;;;;;;;15.98;100.00;99443.00;5055952;28;20028;-85
2023/08/30 00:53:11;;;;;;;0.00;0.00;;;;;;;15.89;100.00;99446.84;5054743;28;20144;-85
2023/08/30 00:55:37;;;;;;;0.00;0.00;;;;;;;15.96;100.00;99437.13;5054502;28;20535;-84
2023/08/30 00:58:03;;;;;;;0.00;0.00;;;;;;;15.99;100.00;99438.53;5051797;28;20768;-85
2023/08/30 01:00:33;;;;;;;0.00;0.00;;;;;;;16.00;100.00;99438.34;5059574;28;20032;-85
2023/08/30 01:02:59;;;;;;;0.00;0.00;;;;;;;15.99;100.00;99443.78;5059360;28;20055;-85
2023/08/30 01:05:24;;;;;;;0.00;0.00;;;;;;;15.83;100.00;99447.63;5056051;28;20050;-85
2023/08/30 01:07:53;;;;;;;0.00;0.00;;;;;;;15.80;100.00;99448.84;5052582;28;20041;-85
2023/08/30 01:10:26;;;;;;;0.00;0.00;;;;;;;15.81;100.00;99455.72;5051499;28;20040;-85
2023/08/30 01:13:02;;;;;;;0.00;0.00;;;;;;;15.74;100.00;99451.47;5049755;28;20032;-85
2023/08/30 01:15:28;;;;;;;;;;;;;;;15.82;100.00;99453.91;5051500;28;20050;-84
2023/08/30 01:17:55;;;;;;;0.00;0.00;;;;;;;15.87;100.00;99464.63;5055359;28;19924;-85
2023/08/30 01:20:24;;;;;;;0.00;0.00;;;;;;;15.85;100.00;99466.63;5053080;28;20035;-85
2023/08/30 01:22:59;;;;;;;0.00;0.00;;;;;;;15.84;100.00;99462.38;5054443;28;20477;-85
2023/08/30 01:25:55;;;;;;;0.00;0.00;;;;;;;15.94;100.00;99468.03;5052474;28;20060;-85
2023/08/30 01:28:23;;;;;;;0.00;0.00;;;;;;;15.90;100.00;99466.84;5052996;28;20032;-85
2023/08/30 01:30:49;;;;;;;0.00;0.00;;;;;;;15.86;100.00;99471.69;5050458;28;20146;-85
2023/08/30 01:33:17;;;;;;;0.00;0.00;;;;;;;15.85;100.00;99471.88;5079211;28;20548;-85
2023/08/30 01:35:43;;;;;;;0.00;0.00;;;;;;;15.91;100.00;99468.44;5058789;28;20040;-85
2023/08/30 01:38:09;;;;;;;0.00;0.00;;;;;;;15.86;100.00;99474.31;5069766;28;20546;-85
2023/08/30 01:40:38;;;;;;;0.00;0.00;;;;;;;15.93;100.00;99467.25;5056286;28;20182;-85
2023/08/30 01:43:07;;;;;;;0.00;0.00;;;;;;;15.99;100.00;99473.50;5072107;28;20037;-85
2023/08/30 01:45:35;;;;;;;0.00;0.00;;;;;;;15.79;100.00;99475.31;5052615;28;20028;-85
2023/08/30 01:48:03;;;;;;;0.00;0.00;;;;;;;15.75;100.00;99482.78;5056451;28;20033;-85
2023/08/30 01:50:28;;;;;;;0.00;0.00;;;;;;;15.86;100.00;99484.00;5055743;28;20039;-85
2023/08/30 01:52:56;;;;;;;0.00;0.00;;;;;;;15.93;100.00;99482.19;5055634;28;20040;-85
2023/08/30 01:55:22;;;;;;;0.00;0.00;;;;;;;15.82;100.00;99474.91;5067757;28;20032;-85
2023/08/30 01:57:48;;;;;;;0.00;0.00;;;;;;;15.78;100.00;99479.75;5051533;28;20174;-85
2023/08/30 02:00:14;;;;;;;0.00;0.00;;;;;;;15.86;100.00;99481.38;5067561;28;20043;-85
2023/08/30 02:02:40;;;;;;;0.00;0.00;;;;;;;15.82;100.00;99474.91;5053242;28;20036;-85
2023/08/30 02:05:06;;;;;;;0.00;0.00;;;;;;;15.67;100.00;99469.03;5062996;28;20595;-85
2023/08/30 02:07:41;;;;;;;0.00;0.00;;;;;;;15.66;100.00;99480.56;5061650;28;20036;-85
2023/08/30 02:10:09;;;;;;;0.00;0.00;;;;;;;15.76;100.00;99470.47;5055288;28;20032;-85
2023/08/30 02:12:42;;;;;;;0.00;0.00;;;;;;;15.91;100.00;99476.34;5067268;28;20048;-85
2023/08/30 02:15:10;;;;;;;0.00;0.00;;;;;;;15.58;100.00;99474.53;5063637;28;21193;-85
2023/08/30 02:17:37;;;;;;;0.00;0.00;;;;;;;15.21;100.00;99477.63;5054441;28;21802;-85
2023/08/30 02:20:04;;;;;;;0.00;0.00;;;;;;;15.07;100.00;99466.31;5065603;28;20066;-85
2023/08/30 02:22:31;;;;;;;0.00;0.00;;;;;;;15.07;100.00;99470.75;5056011;28;20063;-85
2023/08/30 02:24:57;;;;;;;0.00;0.00;;;;;;;15.06;100.00;99474.38;5051706;28;21746;-85
2023/08/30 02:27:23;;;;;;;0.00;0.00;;;;;;;15.07;100.00;99482.06;5050800;28;20189;-84
2023/08/30 02:29:48;;;;;;;0.00;0.00;;;;;;;14.97;100.00;99480.81;5052057;28;20485;-84
2023/08/30 02:32:15;;;;;;;0.00;0.00;;;;;;;14.97;100.00;99478.19;5052003;28;20063;-85
2023/08/30 02:34:40;;;;;;;0.00;0.00;;;;;;;14.95;100.00;99475.75;5059075;28;20040;-84
2023/08/30 02:37:05;;;;;;;0.00;0.00;;;;;;;14.98;100.00;99477.19;5061253;28;20093;-84
2023/08/30 02:39:31;;;;;;;0.00;0.00;;;;;;;15.02;100.00;99471.34;5058463;28;20032;-84
2023/08/30 02:41:56;;;;;;;0.00;0.00;;;;;;;15.01;100.00;99474.16;5064271;28;21319;-84
2023/08/30 02:44:22;;;;;;;0.00;0.00;;;;;;;15.06;100.00;99472.56;5057783;28;20319;-85
2023/08/30 02:46:47;;;;;;;0.00;0.00;;;;;;;15.22;100.00;99474.00;5054279;28;20046;-84
2023/08/30 02:49:12;;;;;;;0.00;0.00;;;;;;;15.35;100.00;99466.16;5070544;28;20068;-84
2023/08/30 02:51:38;;;;;;;0.00;0.00;;;;;;;15.39;100.00;99459.50;5067176;28;20102;-84
2023/08/30 02:54:03;;;;;;;0.00;0.00;;;;;;;15.40;100.00;99465.56;5050643;28;20044;-84
2023/08/30 02:56:29;;;;;;;0.00;0.00;;;;;;;15.32;100.00;99469.19;5051582;28;20032;-84
2023/08/30 02:58:55;;;;;;;0.00;0.00;;;;;;;15.30;100.00;99459.91;5053609;28;20607;-84
2023/08/30 03:01:20;;;;;;;0.00;0.00;;;;;;;15.30;100.00;99460.69;5065369;28;20048;-85
2023/08/30 03:03:46;;;;;;;0.00;0.00;;;;;;;15.13;100.00;99455.00;5051511;28;20069;-84
2023/08/30 03:06:13;;;;;;;0.00;0.00;;;;;;;15.03;100.00;99453.78;5061396;28;20113;-84
2023/08/30 03:08:39;;;;;;;0.00;0.00;;;;;;;14.97;100.00;99454.56;5056036;28;20060;-85
2023/08/30 03:11:12;;;;;;;0.00;0.00;;;;;;;14.92;100.00;99453.34;5047866;28;20185;-84
2023/08/30 03:13:38;;;;;;;0.00;0.00;;;;;;;15.00;100.00;99454.19;5050873;28;20127;-84
2023/08/30 03:16:14;;;;;;;0.00;0.00;;;;;;;15.03;100.00;99438.06;5054101;28;20470;-84
2023/08/30 03:18:40;;;;;;;0.00;0.00;;;;;;;15.07;100.00;99439.28;5053899;28;20041;-84
2023/08/30 03:21:06;;;;;;;0.00;0.00;;;;;;;15.09;100.00;99443.31;5055268;28;20036;-84
2023/08/30 03:23:32;;;;;;;0.00;0.00;;;;;;;15.11;100.00;99445.75;5049709;28;20086;-84
2023/08/30 03:25:58;;;;;;;0.00;0.00;;;;;;;15.01;100.00;99443.50;5065373;28;20024;-84
2023/08/30 03:28:24;;;;;;;0.00;0.00;;;;;;;15.06;100.00;99443.72;5053445;28;20047;-84
2023/08/30 03:30:49;;;;;;;0.00;0.00;;;;;;;15.17;100.00;99443.09;5049782;28;20033;-84
2023/08/30 03:33:15;;;;;;;0.00;0.00;;;;;;;15.06;100.00;99453.41;5051556;28;20036;-84
2023/08/30 03:35:40;;;;;;;0.00;0.00;;;;;;;15.12;100.00;99457.84;5067046;28;20032;-84
2023/08/30 03:38:06;;;;;;;0.00;0.00;;;;;;;15.04;100.00;99456.22;5064933;28;20035;-84
2023/08/30 03:40:31;;;;;;;0.00;0.00;;;;;;;15.13;100.00;99459.44;5050767;28;20032;-84
2023/08/30 03:42:56;;;;;;;0.00;0.00;;;;;;;15.17;100.00;99463.28;5055804;28;20033;-84
2023/08/30 03:45:22;;;;;;;0.00;0.00;;;;;;;15.14;100.00;99455.81;5054107;28;20040;-84
2023/08/30 03:47:47;;;;;;;0.00;0.00;;;;;;;15.19;100.00;99456.03;5062911;28;20048;-84
2023/08/30 03:50:13;;;;;;;0.00;0.00;;;;;;;15.19;100.00;99458.66;5068226;28;20047;-84
2023/08/30 03:52:39;;;;;;;0.00;0.00;;;;;;;15.25;100.00;99463.91;5050099;28;20728;-84
2023/08/30 03:55:04;;;;;;;0.00;0.00;;;;;;;15.33;100.00;99470.81;5049938;28;20812;-85
2023/08/30 03:57:30;;;;;;;0.00;0.00;;;;;;;15.41;100.00;99462.75;5050680;28;20032;-84
2023/08/30 03:59:55;;;;;;;0.00;0.00;;;;;;;15.47;100.00;99472.44;5057601;28;20029;-84
2023/08/30 04:02:21;;;;;;;0.00;0.00;;;;;;;15.46;100.00;99465.59;5048288;28;20041;-84
2023/08/30 04:04:48;;;;;;;0.00;0.00;;;;;;;15.38;100.00;99468.41;5047962;28;20390;-84
2023/08/30 04:07:13;;;;;;;0.00;0.00;;;;;;;15.32;100.00;99474.44;5061055;28;20082;-84
2023/08/30 04:09:39;;;;;;;0.00;0.00;;;;;;;15.29;100.00;99469.59;5065832;28;20546;-85
2023/08/30 04:12:05;;;;;;;0.00;0.00;;;;;;;15.25;100.00;99473.59;5058662;28;20048;-85
2023/08/30 04:14:30;;;;;;;0.00;0.00;;;;;;;15.33;100.00;99481.31;5049032;28;20037;-84
2023/08/30 04:16:56;;;;;;;0.00;0.00;;;;;;;15.37;100.00;99485.16;5051666;28;20138;-85
2023/08/30 04:19:21;;;;;;;0.00;0.00;;;;;;;15.35;100.00;99479.28;5049268;28;20024;-84
2023/08/30 04:21:47;;;;;;;0.00;0.00;;;;;;;15.40;100.00;99481.31;5065786;28;20040;-84
2023/08/30 04:24:14;;;;;;;0.00;0.00;;;;;;;15.38;100.00;99481.50;5048475;28;20474;-84
2023/08/30 04:26:39;;;;;;;0.00;0.00;;;;;;;15.42;100.00;99479.31;5051256;28;20449;-84
2023/08/30 04:29:05;;;;;;;0.00;0.00;;;;;;;15.45;100.00;99484.16;5046600;28;20206;-85
2023/08/30 04:31:30;;;;;;;0.00;0.00;;;;;;;15.47;100.00;99488.19;5063715;28;20074;-84
2023/08/30 04:34:03;;;;;;;0.00;0.00;;;;;;;15.43;100.00;99488.78;5049364;28;20040;-85
2023/08/30 04:36:29;;;;;;;0.00;0.00;;;;;;;15.33;100.00;99486.53;5069725;28;20427;-85
2023/08/30 04:38:54;;;;;;;0.00;0.00;;;;;;;15.41;100.00;99483.75;5056842;28;20033;-85
2023/08/30 04:41:19;;;;;;;0.00;0.00;;;;;;;15.42;100.00;99485.34;5050064;28;20382;-84
2023/08/30 04:43:45;;;;;;;0.00;0.00;;;;;;;15.52;100.00;99496.28;5059589;28;20033;-85
2023/08/30 04:46:10;;;;;;;0.00;0.00;;;;;;;15.58;100.00;99489.47;5068961;28;20025;-84
2023/08/30 04:48:36;;;;;;;0.00;0.00;;;;;;;15.54;100.00;99491.66;5051390;28;20032;-84
2023/08/30 04:51:05;;;;;;;0.00;0.00;;;;;;;15.51;100.00;99489.41;5052216;28;20119;-84
2023/08/30 04:53:31;;;;;;;0.00;0.00;;;;;;;15.63;100.00;99491.47;5054051;28;20040;-85
2023/08/30 04:55:56;;;;;;;0.00;0.00;;;;;;;15.57;100.00;99482.59;5047799;28;20051;-85
2023/08/30 04:58:22;;;;;;;0.00;0.00;;;;;;;15.46;100.00;99486.59;5051379;28;20662;-84
2023/08/30 05:00:47;;;;;;;0.00;0.00;;;;;;;15.48;100.00;99486.38;5056076;28;20040;-85
2023/08/30 05:03:13;;;;;;;0.00;0.00;;;;;;;15.55;100.00;99485.38;5049317;28;20052;-85
2023/08/30 05:05:38;;;;;;;0.00;0.00;;;;;;;15.57;100.00;99487.84;5055978;28;21694;-84
2023/08/30 05:08:04;;;;;;;0.00;0.00;;;;;;;15.67;100.00;99492.69;5063422;28;20081;-84
2023/08/30 05:10:29;;;;;;;0.00;0.00;;;;;;;15.75;100.00;99500.38;5053114;28;20043;-84
2023/08/30 05:12:55;;;;;;;0.00;0.00;;;;;;;15.78;100.00;99489.47;5055082;28;20047;-84
2023/08/30 05:15:21;;;;;;;0.00;0.00;;;;;;;15.72;100.00;99493.69;5051112;28;20564;-84
2023/08/30 05:17:47;;;;;;;0.00;0.00;;;;;;;15.76;100.00;99501.97;5062433;28;21230;-84
2023/08/30 05:20:13;;;;;;;0.00;0.00;;;;;;;15.86;100.00;99487.44;5055623;28;20024;-84
2023/08/30 05:22:38;;;;;;;0.00;0.00;;;;;;;15.87;100.00;99499.56;5051758;28;20066;-85
2023/08/30 05:25:04;;;;;;;0.00;0.00;;;;;;;15.82;100.00;99504.63;5058748;28;20381;-84
2023/08/30 05:27:30;;;;;;;0.00;0.00;;;;;;;15.79;100.00;99493.69;5054980;28;20036;-85
2023/08/30 05:29:58;;;;;;;0.00;0.00;;;;;;;15.79;100.00;99502.38;5064380;28;20040;-85
2023/08/30 05:32:23;;;;;;;0.00;0.00;;;;;;;15.71;100.00;99493.91;5053682;28;20032;-85
2023/08/30 05:34:49;;;;;;;0.00;0.00;;;;;;;15.76;100.00;99497.53;5069387;28;20037;-85
2023/08/30 05:37:14;;;;;;;0.00;0.00;;;;;;;15.76;100.00;99496.72;5069722;28;20428;-85
2023/08/30 05:39:40;;;;;;;0.00;0.00;;;;;;;15.88;100.00;99500.38;5059097;28;20036;-85
2023/08/30 05:42:05;;;;;;;0.00;0.00;;;;;;;15.73;100.00;99505.00;5055796;28;20359;-85
2023/08/30 05:44:31;;;;;;;0.00;0.00;;;;;;;15.87;100.00;99498.75;5055540;28;20029;-86
2023/08/30 05:46:56;;;;;;;0.00;0.00;;;;;;;15.79;100.00;99494.50;5059558;28;20024;-85
2023/08/30 05:49:21;;;;;;;0.00;0.00;;;;;;;15.65;100.00;99489.44;5054333;28;20035;-86
2023/08/30 05:51:47;;;;;;;0.00;0.00;;;;;;;15.69;100.00;99499.34;5051932;28;20127;-85
2023/08/30 05:54:13;;;;;;;0.00;0.00;;;;;;;15.88;100.00;99505.63;5059598;28;20041;-85
2023/08/30 05:56:38;;;;;;;0.00;0.00;;;;;;;15.90;100.00;99517.56;5052754;28;20126;-84
2023/08/30 05:59:04;;;;;;;0.00;0.00;;;;;;;15.87;100.00;99506.63;5050137;28;20024;-86
2023/08/30 06:01:29;;;;;;;0.00;0.00;;;;;;;15.86;100.00;99513.72;5059616;28;20032;-86
2023/08/30 06:03:55;;;;;;;0.00;0.00;;;;;;;15.85;100.00;99517.34;5067521;28;21602;-87
2023/08/30 06:06:20;;;;;;;0.00;0.00;;;;;;;15.87;100.00;99522.41;5066049;28;20106;-87
2023/08/30 06:08:46;;;;;;;0.00;0.00;;;;;;;16.06;100.00;99513.72;5067007;28;20039;-87
2023/08/30 06:11:12;;;;;;;0.00;0.00;;;;;;;16.17;100.00;99522.78;5057101;28;20040;-86
2023/08/30 06:13:38;;;;;;;0.00;0.00;;;;;;;16.04;100.00;99515.75;5060644;28;20059;-87
2023/08/30 06:16:03;;;;;;;0.00;0.00;;;;;;;15.94;100.00;99531.09;5064400;28;20021;-85
2023/08/30 06:18:30;;;;;;;0.00;0.00;;;;;;;16.07;100.00;99536.31;5065717;28;20025;-84
2023/08/30 06:20:56;;;;;;;0.00;0.00;;;;;;;16.18;100.00;99538.34;5067783;28;20125;-85
2023/08/30 06:23:21;;;;;;;0.00;0.00;;;;;;;16.26;100.00;99545.22;5080178;28;20036;-85
2023/08/30 06:25:54;;;;;;;0.00;0.00;;;;;;;16.36;100.00;99544.81;5067278;28;20071;-85
2023/08/30 06:28:20;;;;;;;0.00;0.00;;;;;;;16.33;100.00;99551.28;5077822;28;20044;-85
2023/08/30 06:30:45;;;;;;;0.00;0.00;;;;;;;16.38;100.00;99561.19;5068118;28;20066;-85
2023/08/30 06:33:11;;;;;;;0.00;0.00;;;;;;;16.31;100.00;99563.00;5071093;28;20112;-85
2023/08/30 06:35:39;;;;;;;0.00;0.00;;;;;;;16.28;100.00;99569.47;5069144;28;20050;-84
2023/08/30 06:38:05;;;;;;;0.00;0.00;;;;;;;16.31;100.00;99576.16;5064749;28;20032;-84
2023/08/30 06:40:30;;;;;;;0.00;0.00;;;;;;;16.32;100.00;99585.66;5065035;28;20043;-85
2023/08/30 06:42:56;;;;;;;0.00;0.00;;;;;;;16.29;100.00;99580.81;5067058;28;20028;-84
2023/08/30 06:45:22;;;;;;;0.00;0.00;;;;;;;16.35;100.00;99591.31;5064771;28;20054;-86
2023/08/30 06:47:49;;;;;;;0.00;0.00;;;;;;;16.24;100.00;99595.34;5057707;28;20029;-86
2023/08/30 06:50:14;;;;;;;0.00;0.00;;;;;;;16.25;100.00;99596.97;5080229;28;20036;-87
2023/08/30 06:52:40;;;;;;;0.00;0.00;;;;;;;16.38;100.00;99595.38;5068359;28;20527;-87
2023/08/30 06:55:06;;;;;;;0.00;0.00;;;;;;;16.43;100.00;99603.47;5070620;28;20035;-87
2023/08/30 06:57:31;;;;;;;0.00;0.00;;;;;;;16.41;100.00;99602.84;5064769;28;20071;-86
2023/08/30 06:59:59;;;;;;;0.00;0.00;;;;;;;16.44;100.00;99587.47;5081993;28;20032;-86
2023/08/30 07:02:35;;;;;;;0.00;0.00;;;;;;;16.46;100.00;99592.53;5065168;28;20028;-86
2023/08/30 07:05:01;;;;;;;0.00;0.00;;;;;;;16.37;100.00;99596.38;5059383;28;20044;-86
2023/08/30 07:07:26;;;;;;;0.00;0.00;;;;;;;16.43;100.00;99601.63;5071907;28;20032;-86
2023/08/30 07:09:52;;;;;;;0.00;0.00;;;;;;;16.46;100.00;99597.78;5064308;28;20038;-87
2023/08/30 07:12:17;;;;;;;0.00;0.00;;;;;;;16.41;100.00;99605.47;5082525;28;20029;-87
2023/08/30 07:14:42;;;;;;;0.00;0.00;;;;;;;16.27;100.00;99597.59;5069465;28;20037;-87
2023/08/30 07:17:08;;;;;;;0.00;0.00;;;;;;;16.31;100.00;99610.31;5068414;28;20070;-88
2023/08/30 07:19:33;;;;;;;0.10;0.00;;;;;;;16.08;100.00;99593.13;5066657;28;20428;-88
2023/08/30 07:21:59;;;;;;;0.05;0.00;;;;;;;16.05;100.00;99604.06;5065479;28;20036;-87
2023/08/30 07:24:24;;;;;;;0.08;0.00;;;;;;;15.92;100.00;99593.53;5072530;28;20016;-87
2023/08/30 07:26:50;;;;;;;0.10;0.00;;;;;;;15.91;100.00;99589.28;5066325;28;21191;-88
2023/08/30 07:29:15;;;;;;;0.05;0.00;;;;;;;15.95;100.00;99598.38;5065481;28;20043;-87
2023/08/30 07:31:41;;;;;;;0.00;0.00;;;;;;;15.82;100.00;99599.16;5067215;28;20071;-88
2023/08/30 07:34:07;;;;;;;0.00;0.00;;;;;;;15.78;100.00;99591.88;5067745;28;20033;-86
2023/08/30 07:36:33;;;;;;;0.00;0.00;;;;;;;15.72;100.00;99595.31;5060992;28;20470;-88
2023/08/30 07:38:59;;;;;;;0.00;0.00;;;;;;;15.72;100.00;99597.94;5067988;28;20035;-88
2023/08/30 07:41:24;;;;;;;0.00;0.00;;;;;;;15.73;100.00;99602.97;5066360;28;20474;-87
2023/08/30 07:43:50;;;;;;;0.00;0.00;;;;;;;15.66;100.00;99583.78;5063912;28;20086;-88
2023/08/30 07:46:15;;;;;;;0.10;0.00;;;;;;;15.81;100.00;99594.09;5064425;28;20032;-88
2023/08/30 07:48:41;;;;;;;0.00;0.00;;;;;;;15.87;100.00;99598.56;5067503;28;20068;-87
2023/08/30 07:51:06;;;;;;;0.00;0.00;;;;;;;15.88;100.00;99587.88;5067582;28;20036;-88
2023/08/30 07:53:31;;;;;;;0.00;0.00;;;;;;;15.96;100.00;99591.31;5063635;28;20044;-89
2023/08/30 07:55:58;;;;;;;0.00;0.00;;;;;;;16.04;100.00;99594.56;5065980;28;20053;-89
2023/08/30 07:58:23;;;;;;;0.00;0.00;;;;;;;16.00;100.00;99597.78;5066770;28;20043;-88
2023/08/30 08:00:52;;;;;;;0.00;0.00;;;;;;;16.09;100.00;99597.38;5059660;28;20089;-88
2023/08/30 08:03:19;;;;;;;0.00;0.00;;;;;;;16.05;100.00;99598.00;5066345;28;20025;-88
2023/08/30 08:05:45;;;;;;;0.00;0.00;;;;;;;16.01;100.00;99602.03;5061356;28;20483;-87
2023/08/30 08:08:10;;;;;;;0.00;0.00;;;;;;;16.07;100.00;99607.25;5064784;28;20215;-88
2023/08/30 08:10:36;;;;;;;0.00;0.00;;;;;;;16.15;100.00;99601.81;5084043;28;20037;-88
2023/08/30 08:13:03;;;;;;;0.00;0.00;;;;;;;16.20;100.00;99604.66;5063720;28;20127;-88
2023/08/30 08:15:34;;;;;;;0.00;0.00;;;;;;;16.20;100.00;99606.47;5085772;28;20039;-88
2023/08/30 08:18:01;;;;;;;0.00;0.00;;;;;;;16.18;100.00;99609.31;5068813;28;20075;-88
2023/08/30 08:20:30;;;;;;;0.00;0.00;;;;;;;16.21;100.00;99616.78;5065528;28;20667;-88
2023/08/30 08:22:55;;;;;;;0.00;0.00;;;;;;;16.21;100.00;99613.34;5068715;28;20037;-88
2023/08/30 08:25:23;;;;;;;0.00;0.00;;;;;;;16.14;100.00;99620.41;5066848;28;20021;-89
2023/08/30 08:27:48;;;;;;;0.00;0.00;;;;;;;15.86;100.00;99617.97;5068344;28;20397;-88
2023/08/30 08:30:14;;;;;;;0.00;0.00;;;;;;;15.64;100.00;99611.22;5070567;28;20024;-88
2023/08/30 08:32:39;;;;;;;0.00;0.00;;;;;;;15.58;100.00;99616.28;5069137;28;20029;-88
2023/08/30 08:35:05;;;;;;;0.00;0.00;;;;;;;15.52;100.00;99627.53;5059009;28;20044;-88
2023/08/30 08:37:31;;;;;;;0.00;0.00;;;;;;;15.51;100.00;99622.50;5069147;28;20031;-88
2023/08/30 08:39:57;;;;;;;0.00;0.00;;;;;;;15.48;100.00;99620.25;5066429;28;20464;-88
2023/08/30 08:42:22;;;;;;;0.00;0.00;;;;;;;15.51;100.00;99630.38;5062491;28;20033;-88
2023/08/30 08:44:53;;;;;;;0.00;0.00;;;;;;;15.50;100.00;99629.56;5080863;28;20077;-89
2023/08/30 08:47:20;;;;;;;0.15;0.15;;;;;;;15.50;100.00;99623.50;5070097;28;20025;-88
2023/08/30 08:49:47;;;;;;;0.00;0.00;;;;;;;15.54;100.00;99625.53;5066597;28;20036;-88
2023/08/30 08:52:15;;;;;;;0.00;0.00;;;;;;;15.52;100.00;99624.13;5065033;28;20063;-88
2023/08/30 08:54:40;;;;;;;0.00;0.00;;;;;;;15.55;100.00;99626.34;5071812;28;20044;-88
2023/08/30 08:57:07;;;;;;;0.00;0.00;;;;;;;15.55;100.00;99634.22;5070300;28;20024;-88
2023/08/30 08:59:33;;;;;;;0.00;0.00;;;;;;;15.57;100.00;99630.44;5085100;28;20067;-87
2023/08/30 09:02:00;;;;;;;0.00;0.00;;;;;;;15.59;100.00;99636.28;5067724;28;20052;-88
2023/08/30 09:04:26;;;;;;;0.55;0.00;;;;;;;15.66;100.00;99631.03;5072409;28;20024;-88
2023/08/30 09:06:51;;;;;;;0.00;0.00;;;;;;;15.68;100.00;99636.91;5064629;28;20489;-88
2023/08/30 09:09:17;;;;;;;0.00;0.00;;;;;;;15.60;100.00;99640.50;5068933;28;20043;-90
2023/08/30 09:11:43;;;;;;;0.00;0.00;;;;;;;15.59;100.00;99648.59;5067804;28;20546;-88
2023/08/30 09:14:09;;;;;;;0.00;0.00;;;;;;;15.62;100.00;99636.88;5074347;28;20507;-88
2023/08/30 09:16:34;;;;;;;0.00;0.00;;;;;;;15.60;100.00;99639.69;5072976;28;20028;-89
2023/08/30 09:19:02;;;;;;;0.00;0.00;;;;;;;15.87;100.00;99640.59;5087170;28;20028;-90
2023/08/30 09:21:29;;;;;;;0.00;0.00;;;;;;;15.89;100.00;99642.00;5067042;28;20032;-89
2023/08/30 09:24:04;;;;;;;0.00;0.00;;;;;;;15.82;100.00;99641.19;5068178;28;20115;-90
2023/08/30 09:26:31;;;;;;;0.00;0.00;;;;;;;15.76;100.00;99644.59;5065009;28;20036;-88
2023/08/30 09:29:03;;;;;;;0.00;0.00;;;;;;;15.72;100.00;99637.31;5078610;28;20064;-88
2023/08/30 09:31:33;;;;;;;0.00;0.00;;;;;;;15.62;100.00;99631.63;5083034;28;20075;-90
2023/08/30 09:34:00;;;;;;;0.00;0.00;;;;;;;15.60;100.00;99630.00;5070701;28;20025;-88
2023/08/30 09:36:26;;;;;;;0.00;0.00;;;;;;;15.63;100.00;99635.88;5071989;28;20043;-89
2023/08/30 09:38:52;;;;;;;0.00;0.00;;;;;;;15.65;100.00;99633.84;5063325;28;20394;-88
2023/08/30 09:41:18;;;;;;;0.00;0.00;;;;;;;15.69;100.00;99635.09;5070341;28;20141;-88
2023/08/30 09:43:43;;;;;;;0.00;0.00;;;;;;;15.73;100.00;99638.94;5070403;28;20115;-88
2023/08/30 09:46:09;;;;;;;0.00;0.00;;;;;;;15.82;100.00;99640.38;5074057;28;20029;-88
2023/08/30 09:48:37;;;;;;;0.00;0.00;;;;;;;15.87;100.00;99630.09;5074636;28;20362;-88
2023/08/30 09:51:06;;;;;;;0.00;0.00;;;;;;;16.01;100.00;99637.00;5089776;28;20032;-88
2023/08/30 09:53:40;;;;;;;0.00;0.00;;;;;;;16.06;100.00;99642.47;5077023;28;20041;-88
2023/08/30 09:56:08;;;;;;;0.00;0.00;;;;;;;16.15;100.00;99651.75;5075680;28;20040;-86
2023/08/30 09:58:34;;;;;;;0.00;0.00;;;;;;;16.08;100.00;99627.28;5072022;28;20041;-88
2023/08/30 10:01:02;;;;;;;0.00;0.00;;;;;;;16.04;100.00;99626.09;5067123;28;20032;-86
2023/08/30 10:03:30;;;;;;;0.00;0.00;;;;;;;16.15;100.00;99622.03;5064852;28;20037;-88
2023/08/30 10:05:56;;;;;;;0.00;0.00;;;;;;;16.14;100.00;99621.22;5081691;28;20445;-87
2023/08/30 10:08:23;;;;;;;0.00;0.00;;;;;;;16.13;100.00;99630.13;5069803;28;20138;-87
2023/08/30 10:10:50;;;;;;;0.00;0.00;;;;;;;16.08;100.00;99637.78;5069401;28;20366;-88
2023/08/30 10:13:18;;;;;;;0.00;0.00;;;;;;;16.10;100.00;99635.78;5067740;28;20063;-87
2023/08/30 10:15:49;;;;;;;0.00;0.00;;;;;;;16.21;100.00;99640.44;5063518;28;20032;-87
2023/08/30 10:18:20;;;;;;;0.00;0.00;;;;;;;16.22;100.00;99623.66;5082596;28;20056;-87
2023/08/30 10:20:45;;;;;;;0.00;0.00;;;;;;;16.29;100.00;99628.13;5068905;28;20385;-86
2023/08/30 10:23:11;;;;;;;0.00;0.00;;;;;;;16.34;100.00;99625.69;5074925;28;20029;-86
2023/08/30 10:25:38;;;;;;;0.00;0.00;;;;;;;16.46;100.00;99629.34;5082651;28;20772;-87
2023/08/30 10:28:04;;;;;;;0.00;0.00;;;;;;;16.60;100.00;99623.84;5067486;28;20051;-87
2023/08/30 10:30:30;;;;;;;0.00;0.00;;;;;;;17.05;93.75;99628.44;5068450;28;20128;-87
2023/08/30 10:32:55;;;;;;;0.00;0.00;;;;;;;17.43;89.41;99624.09;5083401;28;20141;-87
2023/08/30 10:35:21;;;;;;;0.20;0.00;;;;;;;17.73;88.55;99626.19;5065486;28;20431;-86
2023/08/30 10:37:56;;;;;;;0.00;0.00;;;;;;;17.96;86.13;99615.91;5066787;28;20060;-86
2023/08/30 10:40:22;;;;;;;0.00;0.00;;;;;;;18.10;84.08;99617.44;5065492;28;20024;-86
2023/08/30 10:42:58;;;;;;;0.00;0.00;;;;;;;18.16;84.95;99616.59;5080904;28;20051;-86
2023/08/30 10:45:24;;;;;;;0.00;0.00;;;;;;;18.36;84.07;99623.53;5079448;28;20032;-86
2023/08/30 10:47:55;;;;;;;0.00;0.00;;;;;;;18.42;82.52;99617.41;5068856;28;20141;-86
2023/08/30 10:50:28;;;;;;;0.00;0.00;;;;;;;18.46;85.48;99623.84;5065777;28;20032;-87
2023/08/30 10:52:58;;;;;;;0.00;0.00;;;;;;;18.49;82.24;99615.50;5064386;28;20153;-87
2023/08/30 10:55:24;;;;;;;0.00;0.00;;;;;;;18.54;82.46;99618.28;5063469;28;20048;-88
2023/08/30 10:57:59;;;;;;;0.00;0.00;;;;;;;18.56;82.66;99621.53;5067352;28;20063;-87
2023/08/30 11:00:27;;;;;;;0.00;0.00;;;;;;;18.56;82.65;99616.25;5066202;28;20078;-87
2023/08/30 11:02:53;;;;;;;0.00;0.00;;;;;;;18.63;78.74;99638.13;5063506;28;20028;-87
2023/08/30 11:05:24;;;;;;;0.00;0.00;;;;;;;18.69;80.33;99632.00;5066695;28;20029;-87
2023/08/30 11:07:51;;;;;;;0.00;0.00;;;;;;;18.72;81.48;99628.13;5065950;28;20097;-88
2023/08/30 11:10:17;;;;;;;0.00;0.00;;;;;;;18.75;76.00;99635.59;5068726;28;20477;-88
2023/08/30 11:12:44;;;;;;;0.00;0.00;;;;;;;18.79;77.98;99620.94;5062455;28;20028;-88
2023/08/30 11:15:20;;;;;;;0.00;0.00;;;;;;;18.81;81.45;99614.44;5071488;28;20036;-87
2023/08/30 11:17:46;;;;;;;0.00;0.00;;;;;;;18.89;76.03;99605.41;5069418;28;20036;-86
2023/08/30 11:20:19;;;;;;;0.00;0.00;;;;;;;18.97;75.19;99602.47;5059876;28;20029;-86
2023/08/30 11:22:46;;;;;;;0.00;0.00;;;;;;;18.98;79.92;99612.00;5064993;28;20036;-88
2023/08/30 11:25:13;;;;;;;0.80;0.65;;;;;;;19.02;77.88;99607.09;5069545;28;20033;-87